createdAt,value
2023-04-16T00:02:39.867Z,84.05
2023-04-16T00:05:42.784Z,83.98
2023-04-16T00:08:45.716Z,83.73
2023-04-16T00:11:48.491Z,83.77
2023-04-16T00:14:51.191Z,83.91
2023-04-16T00:17:53.978Z,83.92
2023-04-16T00:20:56.768Z,83.97
2023-04-16T00:23:59.491Z,83.68
2023-04-16T00:27:02.300Z,83.82
2023-04-16T00:30:07.327Z,83.56
2023-04-16T00:33:10.143Z,83.58
2023-04-16T00:36:12.885Z,83.77
2023-04-16T00:39:16.000Z,83.74
2023-04-16T00:42:18.758Z,83.49
2023-04-16T00:45:21.467Z,82.95
2023-04-16T00:48:24.766Z,82.96
2023-04-16T00:51:27.565Z,82.93
2023-04-16T00:54:31.802Z,83.00
2023-04-16T00:57:34.678Z,83.07
2023-04-16T01:00:37.642Z,83.08
2023-04-16T01:04:33.957Z,83.47
2023-04-16T01:09:00.509Z,83.26
2023-04-16T01:13:16.853Z,82.94
2023-04-16T01:17:40.617Z,82.77
2023-04-16T01:22:04.422Z,83.05
2023-04-16T01:26:28.160Z,83.03
2023-04-16T01:30:48.158Z,82.67
2023-04-16T01:35:04.164Z,82.58
2023-04-16T01:39:20.691Z,82.68
2023-04-16T01:43:44.429Z,82.57
2023-04-16T01:48:08.173Z,82.60
2023-04-16T01:52:31.992Z,82.76
2023-04-16T01:56:48.375Z,82.69
2023-04-16T02:01:10.774Z,82.59
2023-04-16T02:05:34.562Z,82.60
2023-04-16T02:09:58.310Z,82.69
2023-04-16T02:14:14.719Z,82.82
2023-04-16T02:18:38.509Z,83.00
2023-04-16T02:23:02.250Z,83.47
2023-04-16T02:27:26.033Z,83.69
2023-04-16T02:31:46.766Z,83.53
2023-04-16T02:36:02.724Z,83.54
2023-04-16T02:40:26.511Z,83.74
2023-04-16T02:44:50.306Z,83.70
2023-04-16T02:49:14.096Z,83.74
2023-04-16T02:53:38.034Z,83.41
2023-04-16T02:58:01.799Z,83.57
2023-04-16T03:02:25.648Z,83.33
2023-04-16T03:06:49.516Z,83.52
2023-04-16T03:11:12.065Z,82.93
2023-04-16T03:15:35.843Z,82.89
2023-04-16T03:19:52.285Z,83.15
2023-04-16T03:24:00.828Z,83.01
2023-04-16T03:28:24.607Z,83.22
2023-04-16T03:32:48.471Z,83.47
2023-04-16T03:37:12.310Z,82.58
2023-04-16T03:41:28.776Z,82.87
2023-04-16T03:45:45.155Z,83.06
2023-04-16T03:50:09.072Z,83.33
2023-04-16T03:54:32.841Z,83.19
2023-04-16T03:58:56.626Z,83.42
2023-04-16T04:03:19.407Z,83.36
2023-04-16T04:07:43.461Z,83.43
2023-04-16T04:12:07.324Z,83.09
2023-04-16T04:16:31.080Z,82.42
2023-04-16T04:20:54.891Z,82.57
2023-04-16T04:25:18.685Z,82.36
2023-04-16T04:29:42.434Z,82.63
2023-04-16T04:34:04.975Z,82.49
2023-04-16T04:38:11.280Z,82.46
2023-04-16T04:42:35.355Z,82.60
2023-04-16T04:46:59.107Z,82.61
2023-04-16T04:51:22.890Z,82.37
2023-04-16T04:55:33.977Z,82.65
2023-04-16T04:59:57.759Z,82.51
2023-04-16T05:04:21.254Z,82.44
2023-04-16T05:08:45.115Z,82.62
2023-04-16T05:13:08.902Z,82.62
2023-04-16T05:17:32.736Z,82.58
2023-04-16T05:21:55.330Z,83.06
2023-04-16T05:26:17.812Z,82.68
2023-04-16T05:30:41.574Z,82.63
2023-04-16T05:35:05.347Z,83.15
2023-04-16T05:39:29.083Z,82.31
2023-04-16T05:43:52.871Z,82.95
2023-04-16T05:48:16.652Z,82.66
2023-04-16T05:52:40.439Z,82.13
2023-04-16T05:57:04.189Z,82.11
2023-04-16T06:01:20.465Z,81.76
2023-04-16T06:05:44.018Z,82.71
2023-04-16T06:10:08.271Z,82.52
2023-04-16T06:14:31.091Z,81.83
2023-04-16T06:18:54.910Z,81.20
2023-04-16T06:23:18.671Z,81.29
2023-04-16T06:27:42.580Z,80.91
2023-04-16T06:32:04.847Z,81.75
2023-04-16T06:36:21.602Z,81.41
2023-04-16T06:40:45.495Z,81.20
2023-04-16T06:45:08.177Z,81.35
2023-04-16T06:49:31.937Z,81.06
2023-04-16T06:53:55.802Z,80.90
2023-04-16T06:58:12.277Z,80.78
2023-04-16T07:02:36.300Z,80.63
2023-04-16T07:07:00.181Z,80.47
2023-04-16T07:11:24.108Z,80.97
2023-04-16T07:15:48.071Z,80.67
2023-04-16T07:20:10.770Z,80.60
2023-04-16T07:24:34.685Z,80.00
2023-04-16T07:28:58.436Z,80.30
2023-04-16T07:33:22.229Z,80.07
2023-04-16T07:37:46.092Z,79.57
2023-04-16T07:42:18.491Z,79.43
2023-04-16T07:46:45.529Z,78.50
2023-04-16T07:51:10.538Z,79.26
2023-04-16T07:55:34.268Z,79.19
2023-04-16T07:59:48.964Z,79.95
2023-04-16T08:04:13.124Z,79.17
2023-04-16T08:08:19.542Z,78.68
2023-04-16T08:12:43.459Z,78.82
2023-04-16T08:16:59.625Z,78.97
2023-04-16T08:21:15.913Z,79.36
2023-04-16T08:25:39.700Z,79.82
2023-04-16T08:30:03.721Z,80.36
2023-04-16T08:34:18.812Z,79.54
2023-04-16T08:38:41.182Z,78.69
2023-04-16T08:43:04.995Z,79.19
2023-04-16T08:47:25.657Z,79.05
2023-04-16T08:51:49.428Z,79.57
2023-04-16T08:56:42.845Z,79.59
2023-04-16T09:01:07.762Z,79.49
2023-04-16T09:05:31.484Z,79.35
2023-04-16T09:09:55.299Z,79.20
2023-04-16T09:14:19.318Z,78.31
2023-04-16T09:18:43.224Z,78.39
2023-04-16T09:23:07.016Z,78.43
2023-04-16T09:27:30.846Z,78.25
2023-04-16T09:31:54.742Z,77.51
2023-04-16T09:36:27.727Z,76.99
2023-04-16T09:40:55.331Z,77.04
2023-04-16T09:45:19.202Z,76.57
2023-04-16T09:49:48.929Z,76.76
2023-04-16T09:54:05.365Z,76.59
2023-04-16T09:58:29.142Z,76.10
2023-04-16T10:02:53.074Z,76.45
2023-04-16T10:07:16.660Z,76.44
2023-04-16T10:11:40.552Z,74.69
2023-04-16T10:16:04.275Z,75.30
2023-04-16T10:20:28.046Z,74.54
2023-04-16T10:24:52.027Z,73.88
2023-04-16T10:29:15.794Z,72.07
2023-04-16T10:33:39.633Z,72.25
2023-04-16T10:37:56.272Z,72.28
2023-04-16T10:42:22.819Z,72.16
2023-04-16T10:47:01.571Z,71.60
2023-04-16T10:51:25.361Z,70.92
2023-04-16T10:55:49.345Z,69.91
2023-04-16T11:00:13.225Z,69.69
2023-04-16T11:04:37.260Z,69.49
2023-04-16T11:09:01.200Z,69.39
2023-04-16T11:13:17.745Z,68.90
2023-04-16T11:17:41.523Z,69.90
2023-04-16T11:22:05.482Z,68.67
2023-04-16T11:26:29.399Z,68.95
2023-04-16T11:31:05.334Z,68.68
2023-04-16T11:35:29.162Z,67.97
2023-04-16T11:39:53.022Z,66.30
2023-04-16T11:44:16.865Z,67.24
2023-04-16T11:48:46.881Z,65.63
2023-04-16T11:52:50.433Z,65.37
2023-04-16T11:57:14.461Z,66.31
2023-04-16T12:01:38.287Z,67.19
2023-04-16T12:06:17.191Z,66.20
2023-04-16T12:10:47.187Z,63.17
2023-04-16T12:14:50.742Z,64.60
2023-04-16T12:19:14.608Z,65.31
2023-04-16T12:23:38.342Z,64.89
2023-04-16T12:28:02.286Z,64.92
2023-04-16T12:32:38.196Z,63.96
2023-04-16T12:37:02.146Z,63.68
2023-04-16T12:41:25.952Z,64.97
2023-04-16T12:45:49.837Z,64.11
2023-04-16T12:50:05.027Z,64.25
2023-04-16T12:54:27.786Z,64.43
2023-04-16T12:58:51.676Z,63.58
2023-04-16T13:03:15.745Z,62.76
2023-04-16T13:07:32.117Z,62.15
2023-04-16T13:11:55.991Z,63.18
2023-04-16T13:16:19.948Z,63.91
2023-04-16T13:20:43.818Z,63.77
2023-04-16T13:25:07.870Z,64.02
2023-04-16T13:29:31.690Z,64.43
2023-04-16T13:33:55.562Z,64.96
2023-04-16T13:38:19.142Z,65.19
2023-04-16T13:42:43.040Z,66.35
2023-04-16T13:47:06.091Z,65.07
2023-04-16T13:51:30.195Z,66.01
2023-04-16T13:55:54.080Z,65.09
2023-04-16T14:00:17.833Z,64.34
2023-04-16T14:04:41.627Z,64.38
2023-04-16T14:09:05.519Z,64.53
2023-04-16T14:13:29.446Z,65.46
2023-04-16T14:17:53.355Z,65.64
2023-04-16T14:22:17.269Z,65.59
2023-04-16T14:26:40.886Z,64.89
2023-04-16T14:31:04.930Z,64.51
2023-04-16T14:35:29.431Z,66.00
2023-04-16T14:39:53.241Z,65.40
2023-04-16T14:44:16.994Z,65.76
2023-04-16T14:48:33.894Z,64.88
2023-04-16T14:52:56.314Z,65.14
2023-04-16T14:57:20.094Z,65.13
2023-04-16T15:01:43.997Z,65.46
2023-04-16T15:06:08.688Z,65.00
2023-04-16T15:10:32.707Z,65.33
2023-04-16T15:14:56.612Z,65.59
2023-04-16T15:19:20.388Z,66.03
2023-04-16T15:23:44.272Z,65.78
2023-04-16T15:28:08.458Z,65.96
2023-04-16T15:32:32.440Z,65.58
2023-04-16T15:36:56.285Z,65.70
2023-04-16T15:41:20.142Z,65.89
2023-04-16T15:45:44.084Z,65.99
2023-04-16T15:50:08.079Z,65.88
2023-04-16T15:54:31.938Z,65.65
2023-04-16T15:58:55.877Z,65.44
2023-04-16T16:03:19.797Z,65.35
2023-04-16T16:07:43.710Z,65.05
2023-04-16T16:12:07.611Z,65.64
2023-04-16T16:16:31.037Z,65.74
2023-04-16T16:20:54.968Z,65.75
2023-04-16T16:25:18.764Z,65.64
2023-04-16T16:29:42.613Z,66.20
2023-04-16T16:34:06.592Z,65.80
2023-04-16T16:38:30.570Z,66.08
2023-04-16T16:42:54.556Z,66.03
2023-04-16T16:47:10.869Z,66.57
2023-04-16T16:51:34.727Z,66.89
2023-04-16T16:55:58.609Z,66.97
2023-04-16T17:00:21.080Z,66.81
2023-04-16T17:04:45.009Z,67.13
2023-04-16T17:09:09.511Z,67.61
2023-04-16T17:13:33.857Z,67.96
2023-04-16T17:17:57.759Z,68.13
2023-04-16T17:22:21.592Z,68.51
2023-04-16T17:26:45.412Z,68.85
2023-04-16T17:31:09.330Z,69.01
2023-04-16T17:35:33.137Z,68.94
2023-04-16T17:39:56.949Z,69.01
2023-04-16T17:44:20.733Z,68.96
2023-04-16T17:48:44.954Z,69.30
2023-04-16T17:53:08.799Z,69.24
2023-04-16T17:57:32.773Z,69.48
2023-04-16T18:01:57.430Z,69.61
2023-04-16T18:06:12.462Z,69.80
2023-04-16T18:10:36.327Z,70.05
2023-04-16T18:15:00.167Z,70.42
2023-04-16T18:19:24.123Z,70.31
2023-04-16T18:23:48.115Z,70.32
2023-04-16T18:28:13.884Z,70.29
2023-04-16T18:32:38.457Z,70.35
2023-04-16T18:37:02.344Z,70.33
2023-04-16T18:41:27.427Z,70.48
2023-04-16T18:45:54.474Z,71.03
2023-04-16T18:50:18.390Z,70.99
2023-04-16T18:54:42.317Z,71.45
2023-04-16T18:59:06.432Z,71.76
2023-04-16T19:03:30.386Z,72.15
2023-04-16T19:07:56.987Z,72.62
2023-04-16T19:12:21.270Z,72.65
2023-04-16T19:16:45.240Z,73.02
2023-04-16T19:21:09.439Z,73.52
2023-04-16T19:25:33.404Z,74.15
2023-04-16T19:29:57.234Z,74.31
2023-04-16T19:34:21.166Z,74.84
2023-04-16T19:38:45.027Z,75.27
2023-04-16T19:43:08.885Z,75.92
2023-04-16T19:47:31.135Z,75.76
2023-04-16T19:51:55.237Z,75.80
2023-04-16T19:56:21.797Z,75.97
2023-04-16T20:00:44.783Z,76.06
2023-04-16T20:05:08.666Z,76.36
2023-04-16T20:09:32.590Z,76.04
2023-04-16T20:13:56.492Z,76.40
2023-04-16T20:18:20.300Z,76.03
2023-04-16T20:22:26.890Z,76.27
2023-04-16T20:26:50.807Z,76.28
2023-04-16T20:31:15.006Z,76.31
2023-04-16T20:35:38.986Z,76.42
2023-04-16T20:40:03.201Z,76.67
2023-04-16T20:44:27.022Z,76.51
2023-04-16T20:48:50.952Z,76.73
2023-04-16T20:53:14.762Z,77.00
2023-04-16T20:57:38.773Z,76.92
2023-04-16T21:02:02.684Z,76.81
2023-04-16T21:06:29.269Z,77.00
2023-04-16T21:10:53.012Z,76.96
2023-04-16T21:15:16.819Z,77.21
2023-04-16T21:19:40.667Z,77.30
2023-04-16T21:24:04.628Z,77.35
2023-04-16T21:28:28.454Z,77.56
2023-04-16T21:32:52.321Z,77.37
2023-04-16T21:37:16.196Z,77.34
2023-04-16T21:41:40.206Z,77.32
2023-04-16T21:46:04.158Z,77.55
2023-04-16T21:50:28.034Z,77.57
2023-04-16T21:54:51.955Z,77.86
2023-04-16T21:59:15.769Z,77.46
2023-04-16T22:03:39.801Z,77.79
2023-04-16T22:08:17.112Z,77.67
2023-04-16T22:12:47.625Z,77.53
2023-04-16T22:17:10.311Z,77.68
2023-04-16T22:21:26.970Z,77.52
2023-04-16T22:25:50.611Z,77.46
2023-04-16T22:30:14.445Z,77.36
2023-04-16T22:34:38.370Z,77.24
2023-04-16T22:39:02.165Z,76.96
2023-04-16T22:43:26.178Z,77.31
2023-04-16T22:47:50.132Z,77.23
2023-04-16T22:52:13.957Z,77.46
2023-04-16T22:56:37.839Z,77.76
2023-04-16T23:01:00.580Z,77.68
2023-04-16T23:05:24.448Z,78.12
2023-04-16T23:09:44.067Z,78.19
2023-04-16T23:14:07.914Z,78.27
2023-04-16T23:18:31.663Z,78.18
2023-04-16T23:22:55.502Z,78.38
2023-04-16T23:27:19.370Z,78.42
2023-04-16T23:31:35.923Z,78.60
2023-04-16T23:35:59.782Z,78.56
2023-04-16T23:40:13.577Z,78.97
2023-04-16T23:44:37.390Z,79.07
2023-04-16T23:49:01.190Z,79.23
2023-04-16T23:53:25.039Z,79.33
2023-04-16T23:57:49.030Z,79.47
